Time;durP1;ratioP1;P1;durP2;ratioP2;P2;SDS_P1;SDS_P2;PMS_P1;PMS_P2;Temp;Humidity;BMP_temperature;BMP_pressure;BME280_temperature;BME280_humidity;BME280_pressure;Samples;Min_cycle;Max_cycle;Signal;HPM_P1;HPM_P2
2021/12/06 00:00:16;;;;;;;2.27;2.17;;;16.90;66.80;;;;;;5024021;28;44021;-67
2021/12/06 00:02:44;;;;;;;2.10;2.10;;;16.90;67.00;;;;;;5036222;28;43478;-68
2021/12/06 00:05:12;;;;;;;2.07;2.07;;;16.90;66.90;;;;;;5026823;28;44066;-67
2021/12/06 00:07:40;;;;;;;2.30;2.30;;;17.00;66.70;;;;;;5020208;28;43919;-66
2021/12/06 00:10:10;;;;;;;2.00;2.00;;;17.10;66.30;;;;;;5020662;28;43859;-67
2021/12/06 00:12:38;;;;;;;2.50;2.40;;;17.30;66.00;;;;;;5029155;28;44349;-68
2021/12/06 00:15:06;;;;;;;2.10;2.10;;;17.30;65.50;;;;;;5025137;28;44253;-67
2021/12/06 00:17:34;;;;;;;2.10;2.10;;;17.40;65.40;;;;;;5028477;28;44074;-67
2021/12/06 00:20:03;;;;;;;2.20;2.20;;;17.30;65.40;;;;;;5026964;28;43938;-68
2021/12/06 00:22:31;;;;;;;2.27;2.27;;;17.20;65.50;;;;;;5015437;28;44655;-67
2021/12/06 00:24:59;;;;;;;2.17;2.17;;;17.20;65.80;;;;;;5023270;28;43501;-67
2021/12/06 00:27:28;;;;;;;2.30;2.30;;;17.10;65.90;;;;;;5024747;28;43919;-67
2021/12/06 00:29:56;;;;;;;2.10;2.00;;;17.00;66.10;;;;;;5023594;28;44352;-67
2021/12/06 00:32:24;;;;;;;1.97;1.97;;;17.00;66.30;;;;;;5032273;28;43438;-66
2021/12/06 00:34:52;;;;;;;2.20;2.20;;;17.00;66.40;;;;;;5025531;28;44018;-67
2021/12/06 00:37:23;;;;;;;2.17;2.17;;;17.00;66.60;;;;;;5028698;28;44012;-67
2021/12/06 00:39:52;;;;;;;2.50;2.50;;;16.90;66.60;;;;;;5024717;28;44084;-68
2021/12/06 00:42:21;;;;;;;2.30;2.30;;;16.90;66.80;;;;;;5025260;28;43956;-68
2021/12/06 00:44:51;;;;;;;2.10;2.10;;;16.90;66.70;;;;;;5026465;28;44225;-67
2021/12/06 00:47:20;;;;;;;2.20;2.10;;;17.00;66.40;;;;;;5006384;28;45802;-68
2021/12/06 00:49:49;;;;;;;1.93;1.93;;;17.10;66.20;;;;;;5023479;28;44123;-66
2021/12/06 00:52:17;;;;;;;1.90;1.90;;;17.10;66.10;;;;;;5034406;28;43557;-67
2021/12/06 00:54:45;;;;;;;2.10;2.10;;;17.00;66.10;;;;;;5040127;28;44042;-68
2021/12/06 00:57:13;;;;;;;2.13;2.13;;;17.00;66.30;;;;;;5030206;28;44195;-67
2021/12/06 00:59:41;;;;;;;2.13;2.13;;;17.00;66.40;;;;;;5003649;28;45856;-66
2021/12/06 01:02:11;;;;;;;2.03;2.03;;;16.90;66.40;;;;;;5012505;28;44054;-67
2021/12/06 01:04:40;;;;;;;2.10;2.10;;;16.90;66.60;;;;;;5037759;28;44049;-67
2021/12/06 01:07:08;;;;;;;2.03;2.03;;;16.90;66.70;;;;;;5010042;28;45679;-67
2021/12/06 01:09:36;;;;;;;2.00;2.00;;;16.90;66.70;;;;;;5030044;28;43964;-68
2021/12/06 01:12:04;;;;;;;2.33;2.33;;;16.80;66.70;;;;;;5026368;28;44141;-68
2021/12/06 01:14:32;;;;;;;2.00;2.00;;;16.80;66.80;;;;;;5040889;28;43982;-68
2021/12/06 01:17:00;;;;;;;2.07;2.07;;;16.80;66.90;;;;;;5035288;28;44144;-67
2021/12/06 01:19:30;;;;;;;2.00;2.00;;;16.80;66.80;;;;;;5032986;28;44082;-66
2021/12/06 01:22:13;;;;;;;2.13;2.13;;;16.80;66.90;;;;;;5013387;28;44252;-67
2021/12/06 01:24:48;;;;;;;2.27;2.17;;;16.90;66.80;;;;;;5011718;28;43993;-67
2021/12/06 01:27:36;;;;;;;2.40;2.30;;;17.00;66.40;;;;;;5025860;28;43697;-68
2021/12/06 01:30:22;;;;;;;2.20;2.20;;;17.20;66.10;;;;;;5009399;28;44003;-66
2021/12/06 01:41:18;;;;;;;2.00;2.00;;;17.10;65.70;;;;;;5028566;28;44046;-67
2021/12/06 01:44:06;;;;;;;2.20;2.20;;;17.10;66.00;;;;;;5037694;28;44018;-67
2021/12/06 01:46:38;;;;;;;2.00;2.00;;;17.00;66.10;;;;;;5007747;28;44083;-67
2021/12/06 01:49:06;;;;;;;2.20;2.20;;;17.00;66.30;;;;;;5013041;28;46160;-67
2021/12/06 01:51:36;;;;;;;2.10;2.10;;;17.00;66.40;;;;;;5040195;28;44389;-68
2021/12/06 01:54:04;;;;;;;2.03;2.03;;;16.90;66.50;;;;;;5037934;28;43989;-66
2021/12/06 01:56:32;;;;;;;1.70;1.70;;;16.90;66.50;;;;;;5031193;28;43939;-67
2021/12/06 01:59:00;;;;;;;2.20;2.20;;;16.90;66.70;;;;;;5010668;28;44910;-67
2021/12/06 02:01:29;;;;;;;2.20;2.20;;;16.90;66.70;;;;;;5017318;28;44073;-67
2021/12/06 02:03:58;;;;;;;2.00;2.00;;;16.90;66.60;;;;;;5034473;28;43975;-67
2021/12/06 02:06:26;;;;;;;2.20;2.20;;;17.00;66.30;;;;;;5013109;28;43973;-68
2021/12/06 02:08:55;;;;;;;2.33;2.30;;;17.00;66.10;;;;;;5013156;28;43962;-67
2021/12/06 02:11:26;;;;;;;2.27;2.17;;;17.00;66.10;;;;;;5013675;28;44874;-67
2021/12/06 02:14:02;;;;;;;2.20;2.20;;;17.00;66.30;;;;;;5013605;28;44022;-68
2021/12/06 02:16:39;;;;;;;2.13;2.13;;;17.00;66.40;;;;;;5026243;28;44052;-67
2021/12/06 02:19:07;;;;;;;2.00;2.00;;;16.90;66.50;;;;;;5009029;28;45523;-67
2021/12/06 02:21:39;;;;;;;1.90;1.90;;;16.90;66.60;;;;;;5038280;28;45988;-67
2021/12/06 02:24:10;;;;;;;2.00;2.00;;;16.90;66.70;;;;;;5007065;28;43489;-67
2021/12/06 02:26:39;;;;;;;2.00;2.00;;;16.80;66.70;;;;;;5016543;28;43978;-68
2021/12/06 02:29:08;;;;;;;2.30;2.30;;;16.80;66.70;;;;;;5014639;28;45609;-67
2021/12/06 02:31:36;;;;;;;2.17;2.17;;;16.80;66.80;;;;;;5030459;28;44118;-68
2021/12/06 02:34:05;;;;;;;2.20;2.20;;;16.80;66.90;;;;;;5015491;28;43861;-67
2021/12/06 02:36:33;;;;;;;2.17;2.17;;;16.80;66.90;;;;;;5031253;28;43946;-68
2021/12/06 02:39:02;;;;;;;2.03;2.03;;;16.80;67.00;;;;;;5032617;28;43778;-66
2021/12/06 02:41:33;;;;;;;1.90;1.90;;;16.90;67.00;;;;;;5011198;28;43904;-67
2021/12/06 02:44:01;;;;;;;2.00;2.00;;;16.90;66.70;;;;;;5034437;28;43993;-66
2021/12/06 02:46:29;;;;;;;1.87;1.87;;;17.00;66.20;;;;;;5031862;28;44017;-67
2021/12/06 02:48:57;;;;;;;2.23;2.23;;;17.20;66.00;;;;;;5032831;28;44132;-67
2021/12/06 02:51:27;;;;;;;2.00;2.00;;;17.20;65.50;;;;;;5043081;28;45293;-67
2021/12/06 02:53:55;;;;;;;2.40;2.40;;;17.20;65.40;;;;;;5017454;28;43382;-67
2021/12/06 02:56:32;;;;;;;1.87;1.87;;;17.20;65.50;;;;;;5042938;28;43949;-67
2021/12/06 02:59:05;;;;;;;2.10;2.10;;;17.10;65.60;;;;;;5011876;28;45344;-66
2021/12/06 03:01:35;;;;;;;2.10;2.10;;;17.10;65.90;;;;;;5018228;28;45026;-67
2021/12/06 03:04:04;;;;;;;2.10;2.10;;;17.00;66.00;;;;;;5029993;28;43530;-67
2021/12/06 03:06:32;;;;;;;2.30;2.20;;;17.00;66.10;;;;;;5029205;28;43504;-68
2021/12/06 03:09:06;;;;;;;2.10;2.10;;;17.00;66.30;;;;;;5038455;28;43935;-67
2021/12/06 03:11:36;;;;;;;2.10;2.10;;;16.90;66.30;;;;;;5017993;28;44017;-68
2021/12/06 03:14:08;;;;;;;2.10;2.10;;;16.90;66.40;;;;;;5012019;28;44069;-67
2021/12/06 03:16:37;;;;;;;1.93;1.93;;;16.90;66.50;;;;;;5041180;28;44022;-68
2021/12/06 03:19:09;;;;;;;2.10;2.10;;;16.90;67.40;;;;;;5042146;28;46954;-67
2021/12/06 03:21:38;;;;;;;2.60;2.50;;;17.00;66.50;;;;;;5014539;28;44058;-67
2021/12/06 03:24:06;;;;;;;2.07;2.07;;;17.00;66.00;;;;;;5012509;28;44057;-67
2021/12/06 03:26:37;;;;;;;2.00;2.00;;;17.10;65.90;;;;;;5041115;28;43452;-68
2021/12/06 03:29:05;;;;;;;1.80;1.80;;;17.10;65.90;;;;;;5011820;28;46017;-67
2021/12/06 03:31:33;;;;;;;1.80;1.80;;;17.00;65.90;;;;;;5035807;28;44064;-68
2021/12/06 03:34:04;;;;;;;2.00;2.00;;;17.00;66.10;;;;;;5015073;28;43408;-67
2021/12/06 03:36:33;;;;;;;2.17;2.17;;;17.00;66.20;;;;;;5007015;28;44116;-67
2021/12/06 03:39:02;;;;;;;2.00;2.00;;;16.90;66.40;;;;;;5031119;28;43972;-67
2021/12/06 03:41:31;;;;;;;1.90;1.90;;;16.90;66.40;;;;;;5032119;28;44026;-69
2021/12/06 03:44:00;;;;;;;2.17;2.17;;;16.90;66.50;;;;;;5013250;28;44149;-66
2021/12/06 03:46:31;;;;;;;2.03;2.03;;;16.80;66.50;;;;;;5012168;28;44368;-67
2021/12/06 03:48:59;;;;;;;1.87;1.87;;;16.90;66.60;;;;;;5011533;28;45708;-67
2021/12/06 03:51:28;;;;;;;2.50;2.40;;;16.80;66.60;;;;;;5019060;28;45195;-68
2021/12/06 03:53:56;;;;;;;2.10;2.10;;;16.80;66.60;;;;;;5019747;28;44101;-67
2021/12/06 03:56:24;;;;;;;1.97;1.97;;;16.80;66.80;;;;;;5025439;28;43513;-68
2021/12/06 03:58:52;;;;;;;2.20;2.20;;;16.80;66.80;;;;;;5016783;28;45495;-67
2021/12/06 04:01:21;;;;;;;2.10;2.10;;;16.90;66.70;;;;;;5035827;28;44096;-68
2021/12/06 04:03:51;;;;;;;1.90;1.90;;;17.00;66.40;;;;;;5012059;28;44004;-66
2021/12/06 04:06:19;;;;;;;2.17;2.17;;;17.10;65.90;;;;;;5012424;28;43572;-67
2021/12/06 04:08:47;;;;;;;2.00;2.00;;;17.20;65.60;;;;;;5024576;28;44142;-68
2021/12/06 04:11:15;;;;;;;2.03;2.03;;;17.20;65.40;;;;;;5033913;28;43717;-67
2021/12/06 04:13:46;;;;;;;2.23;2.23;;;17.20;65.50;;;;;;5010585;28;44126;-69
2021/12/06 04:16:14;;;;;;;2.17;2.17;;;17.10;65.60;;;;;;5008014;28;43999;-67
2021/12/06 04:18:45;;;;;;;2.00;2.00;;;17.10;65.90;;;;;;5010531;28;44867;-67
2021/12/06 04:21:14;;;;;;;2.03;2.03;;;17.00;66.10;;;;;;5018761;28;44566;-68
2021/12/06 04:23:42;;;;;;;2.00;2.00;;;17.00;66.20;;;;;;5016907;28;43974;-66
2021/12/06 04:26:11;;;;;;;2.10;2.10;;;16.90;66.30;;;;;;5011608;28;43532;-67
2021/12/06 04:28:47;;;;;;;1.90;1.90;;;16.90;66.40;;;;;;5012581;28;45561;-66
2021/12/06 04:31:16;;;;;;;2.03;2.03;;;16.90;66.50;;;;;;5041350;28;43899;-68
2021/12/06 04:33:46;;;;;;;1.80;1.80;;;16.90;66.60;;;;;;5029769;28;44091;-67
2021/12/06 04:36:34;;;;;;;2.17;2.17;;;16.80;66.50;;;;;;5023920;28;44091;-67
2021/12/06 04:39:03;;;;;;;2.27;2.27;;;16.80;66.60;;;;;;5029973;28;44797;-67
2021/12/06 04:41:31;;;;;;;2.17;2.17;;;16.90;66.50;;;;;;5030189;28;44065;-66
2021/12/06 04:44:00;;;;;;;2.10;2.10;;;17.00;66.20;;;;;;5016113;28;43977;-67
2021/12/06 04:46:29;;;;;;;2.10;2.10;;;17.00;66.00;;;;;;5037883;28;44033;-68
2021/12/06 04:48:58;;;;;;;2.17;2.10;;;17.00;66.00;;;;;;5030360;28;44234;-67
2021/12/06 04:51:27;;;;;;;2.10;2.10;;;17.00;66.10;;;;;;5036482;28;45309;-67
2021/12/06 04:53:56;;;;;;;2.03;2.03;;;16.90;66.20;;;;;;5008001;28;44169;-67
2021/12/06 04:56:25;;;;;;;2.10;2.10;;;16.90;66.40;;;;;;5012121;28;44245;-67
2021/12/06 04:58:56;;;;;;;2.27;2.20;;;16.90;66.40;;;;;;5006613;28;45400;-66
2021/12/06 05:01:27;;;;;;;2.23;2.13;;;16.90;66.60;;;;;;5009637;28;44096;-68
2021/12/06 05:03:59;;;;;;;3.37;3.03;;;16.80;66.60;;;;;;5008201;28;44143;-68
2021/12/06 05:06:28;;;;;;;3.00;2.80;;;16.80;66.60;;;;;;5007368;28;43808;-67
2021/12/06 05:09:06;;;;;;;3.10;2.90;;;16.80;66.70;;;;;;5005649;28;45482;-67
2021/12/06 05:11:34;;;;;;;3.03;2.90;;;16.80;66.70;;;;;;5025522;28;44081;-67
2021/12/06 05:14:02;;;;;;;4.93;3.90;;;16.80;66.80;;;;;;5011178;28;44162;-67
2021/12/06 05:16:33;;;;;;;5.77;3.77;;;16.70;66.80;;;;;;5035666;28;43607;-69
2021/12/06 05:19:03;;;;;;;4.27;3.57;;;16.80;66.90;;;;;;5013020;28;46048;-68
2021/12/06 05:21:33;;;;;;;4.07;3.67;;;16.90;66.60;;;;;;5010113;28;43992;-67
2021/12/06 05:24:03;;;;;;;4.07;3.73;;;17.00;66.20;;;;;;5015000;28;44014;-67
2021/12/06 05:26:31;;;;;;;4.17;3.73;;;17.10;65.80;;;;;;5029737;28;43525;-67
2021/12/06 05:29:02;;;;;;;4.30;3.90;;;17.20;65.40;;;;;;5041063;28;44285;-67
2021/12/06 05:31:33;;;;;;;5.53;4.43;;;17.20;65.40;;;;;;5039581;28;44145;-67
2021/12/06 05:34:08;;;;;;;3.60;3.40;;;17.20;65.40;;;;;;5026177;28;44095;-67
2021/12/06 05:36:36;;;;;;;4.97;3.90;;;17.10;65.60;;;;;;5029021;28;43895;-68
2021/12/06 05:39:06;;;;;;;4.60;3.77;;;17.00;65.80;;;;;;5025181;28;44451;-66
2021/12/06 05:41:34;;;;;;;4.83;3.97;;;17.00;66.00;;;;;;5027276;28;44041;-67
2021/12/06 05:44:02;;;;;;;5.33;4.27;;;16.90;66.00;;;;;;5007629;28;43959;-67
2021/12/06 05:46:30;;;;;;;4.60;4.13;;;16.90;66.20;;;;;;5029476;28;43988;-68
2021/12/06 05:48:58;;;;;;;7.17;4.30;;;16.90;66.30;;;;;;5030405;28;44078;-68
2021/12/06 05:51:27;;;;;;;5.17;4.10;;;16.80;66.30;;;;;;5024230;28;43757;-67
2021/12/06 05:53:55;;;;;;;4.53;3.87;;;16.80;66.40;;;;;;5029807;28;44020;-68
2021/12/06 05:56:23;;;;;;;6.00;4.50;;;16.80;66.60;;;;;;5026446;28;43552;-68
2021/12/06 05:58:51;;;;;;;5.43;4.00;;;16.80;66.60;;;;;;5043252;28;43960;-67
2021/12/06 06:01:21;;;;;;;7.60;4.27;;;16.90;66.40;;;;;;5034059;28;44153;-67
2021/12/06 06:03:50;;;;;;;5.43;4.60;;;17.00;66.10;;;;;;5035876;28;44037;-68
2021/12/06 06:06:18;;;;;;;4.90;4.10;;;17.00;66.00;;;;;;5016602;28;43995;-67
2021/12/06 06:08:47;;;;;;;5.37;4.53;;;17.00;66.10;;;;;;5036318;28;44958;-67
2021/12/06 06:11:15;;;;;;;4.90;4.47;;;16.90;66.10;;;;;;5032797;28;43931;-68
2021/12/06 06:13:43;;;;;;;5.27;4.40;;;16.90;66.30;;;;;;5031348;28;44048;-67
2021/12/06 06:16:11;;;;;;;7.07;4.87;;;16.90;66.40;;;;;;5031504;28;44057;-68
2021/12/06 06:18:39;;;;;;;5.90;4.33;;;16.80;66.40;;;;;;5030171;28;44220;-68
2021/12/06 06:21:06;;;;;;;4.83;4.27;;;16.80;66.60;;;;;;5032873;28;44014;-68
2021/12/06 06:23:34;;;;;;;5.87;4.70;;;16.80;66.60;;;;;;5035938;28;43939;-68
2021/12/06 06:26:04;;;;;;;5.40;4.40;;;16.70;66.70;;;;;;5037269;28;43548;-67
2021/12/06 06:28:32;;;;;;;4.57;4.13;;;16.70;66.70;;;;;;5030569;28;43941;-67
2021/12/06 06:31:00;;;;;;;5.07;4.60;;;16.70;66.80;;;;;;5031916;28;43950;-67
2021/12/06 06:33:28;;;;;;;5.97;4.67;;;16.70;66.90;;;;;;5029579;28;43441;-68
2021/12/06 06:35:56;;;;;;;5.67;4.70;;;16.70;67.10;;;;;;5029077;28;44209;-67
2021/12/06 06:38:24;;;;;;;5.27;4.23;;;16.70;67.00;;;;;;5033810;28;44122;-68
2021/12/06 06:40:52;;;;;;;4.73;4.20;;;16.80;66.70;;;;;;5037653;28;44031;-67
2021/12/06 06:43:21;;;;;;;6.53;4.60;;;17.00;66.40;;;;;;5034017;28;43907;-67
2021/12/06 06:45:49;;;;;;;5.47;4.63;;;17.00;66.00;;;;;;5030255;28;44038;-67
2021/12/06 06:48:17;;;;;;;5.23;4.73;;;17.10;65.70;;;;;;5030662;28;45108;-67
2021/12/06 06:50:45;;;;;;;4.77;4.27;;;17.10;65.60;;;;;;5033397;28;43986;-67
2021/12/06 06:53:13;;;;;;;6.57;4.53;;;17.00;65.70;;;;;;5026468;28;43997;-67
2021/12/06 06:55:41;;;;;;;4.37;3.97;;;17.00;65.90;;;;;;5033001;28;44055;-67
2021/12/06 06:58:14;;;;;;;5.07;4.53;;;17.00;66.10;;;;;;5034036;28;43654;-67
2021/12/06 07:00:43;;;;;;;4.83;4.43;;;16.90;66.20;;;;;;5025645;28;43982;-68
2021/12/06 07:03:11;;;;;;;5.37;4.87;;;16.90;66.40;;;;;;5028935;28;44051;-68
2021/12/06 07:05:39;;;;;;;5.37;4.87;;;16.90;66.50;;;;;;5022729;28;44313;-67
2021/12/06 07:08:07;;;;;;;5.47;4.83;;;16.80;66.50;;;;;;5027488;28;44257;-67
2021/12/06 07:10:35;;;;;;;4.67;4.23;;;16.80;66.50;;;;;;5029700;28;44091;-68
2021/12/06 07:13:08;;;;;;;5.20;4.70;;;16.80;66.60;;;;;;5006968;28;43972;-68
2021/12/06 07:15:36;;;;;;;6.77;4.53;;;16.80;66.60;;;;;;5023525;28;44054;-67
2021/12/06 07:18:06;;;;;;;4.30;4.00;;;16.80;66.60;;;;;;5029067;28;44034;-68
2021/12/06 07:20:34;;;;;;;4.83;4.40;;;16.90;66.40;;;;;;5026749;28;43500;-68
2021/12/06 07:23:03;;;;;;;5.27;4.23;;;17.00;66.10;;;;;;5022670;28;44049;-67
2021/12/06 07:25:31;;;;;;;5.27;4.57;;;17.00;65.90;;;;;;5026580;28;43970;-68
2021/12/06 07:28:00;;;;;;;5.07;4.57;;;17.00;66.00;;;;;;5036986;28;45696;-68
2021/12/06 07:30:28;;;;;;;5.37;4.50;;;16.90;66.10;;;;;;5008285;28;46436;-68
2021/12/06 07:32:56;;;;;;;6.47;4.73;;;16.90;66.20;;;;;;5026779;28;44023;-69
2021/12/06 07:35:29;;;;;;;5.10;4.60;;;16.90;66.30;;;;;;5024072;28;44070;-67
2021/12/06 07:37:57;;;;;;;4.87;4.47;;;16.80;66.30;;;;;;5023504;28;43592;-67
2021/12/06 07:40:25;;;;;;;4.97;4.57;;;16.80;66.50;;;;;;5026736;28;44066;-66
2021/12/06 07:42:53;;;;;;;5.80;4.73;;;16.80;66.50;;;;;;5025795;28;44299;-67
2021/12/06 07:45:21;;;;;;;4.83;4.43;;;16.80;66.70;;;;;;5031702;28;44019;-67
2021/12/06 07:47:49;;;;;;;5.20;4.73;;;16.70;66.60;;;;;;5021431;28;44059;-68
2021/12/06 07:50:18;;;;;;;4.87;4.37;;;16.70;66.70;;;;;;5020711;28;44012;-67
2021/12/06 07:52:49;;;;;;;4.40;4.00;;;16.70;66.70;;;;;;5027358;28;43795;-68
2021/12/06 07:55:17;;;;;;;4.47;4.07;;;16.70;66.80;;;;;;5026628;28;44147;-68
2021/12/06 07:57:45;;;;;;;4.70;4.40;;;16.80;66.90;;;;;;5026903;28;43756;-68
2021/12/06 08:00:15;;;;;;;5.43;4.87;;;16.90;66.70;;;;;;5024799;28;44102;-68
2021/12/06 08:02:43;;;;;;;4.63;4.23;;;17.00;66.30;;;;;;5028649;28;44185;-68
2021/12/06 08:08:00;;;;;;;5.10;4.57;;;17.20;65.40;;;;;;5024651;28;44086;-69
2021/12/06 08:10:28;;;;;;;4.83;4.30;;;17.20;65.30;;;;;;5023438;28;43939;-67
2021/12/06 08:12:56;;;;;;;4.63;4.23;;;17.10;65.30;;;;;;5028991;28;44006;-68
2021/12/06 08:15:24;;;;;;;4.83;4.40;;;17.10;65.50;;;;;;5027899;28;44115;-67
2021/12/06 08:17:52;;;;;;;4.70;4.40;;;17.00;65.70;;;;;;5013801;28;44224;-67
2021/12/06 08:20:20;;;;;;;5.13;4.67;;;17.00;66.00;;;;;;5022064;28;44123;-69
2021/12/06 08:22:48;;;;;;;4.40;4.10;;;16.90;66.00;;;;;;5027022;28;44045;-67
2021/12/06 08:25:18;;;;;;;4.30;4.00;;;16.90;66.20;;;;;;5024878;28;44040;-68
2021/12/06 08:27:46;;;;;;;4.23;3.97;;;16.90;66.30;;;;;;5025319;28;44809;-68
2021/12/06 08:30:16;;;;;;;4.50;4.10;;;16.80;66.40;;;;;;5026213;28;43456;-68
2021/12/06 08:32:44;;;;;;;4.90;4.50;;;16.80;66.40;;;;;;5023047;28;43433;-68
2021/12/06 08:35:32;;;;;;;4.63;4.23;;;16.80;66.50;;;;;;5028586;28;44110;-68
2021/12/06 08:38:00;;;;;;;4.67;4.27;;;16.80;66.60;;;;;;5026129;28;44095;-67
2021/12/06 08:40:29;;;;;;;5.67;5.00;;;16.90;66.40;;;;;;5021652;28;44421;-68
2021/12/06 08:42:57;;;;;;;4.63;4.23;;;16.90;66.00;;;;;;5030149;28;43460;-68
2021/12/06 08:45:27;;;;;;;4.30;4.00;;;16.90;65.90;;;;;;5036337;28;44073;-67
2021/12/06 08:47:55;;;;;;;4.80;4.37;;;16.90;66.10;;;;;;5025322;28;43968;-69
2021/12/06 08:50:24;;;;;;;4.53;4.13;;;16.90;66.20;;;;;;5022729;28;44081;-67
2021/12/06 08:52:52;;;;;;;4.50;4.17;;;16.90;66.40;;;;;;5021208;28;44093;-66
2021/12/06 08:55:20;;;;;;;4.60;4.30;;;16.80;66.40;;;;;;5024441;28;43513;-68
2021/12/06 08:57:51;;;;;;;4.50;4.20;;;16.80;66.50;;;;;;5023558;28;44478;-67
2021/12/06 09:00:21;;;;;;;4.40;4.03;;;16.80;66.60;;;;;;5024648;28;44100;-68
2021/12/06 09:02:49;;;;;;;4.80;4.40;;;16.70;66.60;;;;;;5028000;28;44257;-67
2021/12/06 09:05:23;;;;;;;4.50;4.10;;;16.70;66.70;;;;;;5026443;28;43933;-68
2021/12/06 09:07:50;;;;;;;4.63;4.30;;;16.70;66.70;;;;;;5023387;28;44097;-66
2021/12/06 09:10:18;;;;;;;4.30;4.00;;;16.70;66.80;;;;;;5028443;28;44343;-68
2021/12/06 09:12:46;;;;;;;4.17;3.90;;;16.70;66.80;;;;;;5025798;28;44004;-67
2021/12/06 09:15:17;;;;;;;4.57;4.20;;;16.70;67.00;;;;;;5023162;28;44018;-68
2021/12/06 09:17:48;;;;;;;4.53;4.13;;;16.70;66.90;;;;;;5023325;28;44716;-68
2021/12/06 09:20:16;;;;;;;4.30;4.00;;;16.90;66.80;;;;;;5002942;28;45351;-68
2021/12/06 09:22:45;;;;;;;4.17;3.90;;;17.00;66.40;;;;;;5022363;28;44062;-67
2021/12/06 09:25:13;;;;;;;3.87;3.67;;;17.10;65.90;;;;;;5034370;28;43575;-67
2021/12/06 09:27:41;;;;;;;4.53;4.27;;;17.10;65.50;;;;;;5028544;28;44511;-68
2021/12/06 09:30:11;;;;;;;3.90;3.70;;;17.10;65.50;;;;;;5028270;28;44002;-67
2021/12/06 09:32:40;;;;;;;3.87;3.67;;;17.00;65.60;;;;;;5024105;28;44045;-67
2021/12/06 09:35:11;;;;;;;3.57;3.37;;;17.00;65.80;;;;;;5014714;28;43563;-66
2021/12/06 09:37:40;;;;;;;4.03;3.83;;;17.00;66.00;;;;;;5011793;28;46146;-66
2021/12/06 09:40:09;;;;;;;4.03;3.73;;;17.00;66.20;;;;;;5028049;28;44067;-68
2021/12/06 09:42:37;;;;;;;3.63;3.37;;;16.90;66.30;;;;;;5033494;28;44004;-68
2021/12/06 09:45:06;;;;;;;4.57;3.90;;;16.90;66.50;;;;;;5028180;28;44244;-68
2021/12/06 09:47:35;;;;;;;4.20;4.00;;;16.80;66.80;;;;;;5032941;28;44041;-67
2021/12/06 09:50:05;;;;;;;4.47;4.17;;;16.80;67.30;;;;;;5028536;28;43417;-67
2021/12/06 09:52:33;;;;;;;4.07;3.87;;;16.80;66.80;;;;;;5026655;28;44030;-67
2021/12/06 09:55:01;;;;;;;4.13;3.73;;;16.80;67.40;;;;;;5041731;28;44248;-69
2021/12/06 09:57:28;;;;;;;3.73;3.43;;;16.80;66.60;;;;;;5038191;28;43925;-69
2021/12/06 09:59:56;;;;;;;3.90;3.60;;;16.90;66.70;;;;;;5030760;28;43917;-68
2021/12/06 10:02:24;;;;;;;3.83;3.53;;;17.00;66.90;;;;;;5031711;28;43930;-67
2021/12/06 10:04:55;;;;;;;3.83;3.63;;;17.00;66.60;;;;;;5033515;28;44082;-68
2021/12/06 10:07:25;;;;;;;3.80;3.60;;;17.00;66.40;;;;;;5037598;28;44066;-68
2021/12/06 10:09:53;;;;;;;3.67;3.47;;;16.90;66.30;;;;;;5030464;28;44125;-67
2021/12/06 10:12:21;;;;;;;3.50;3.30;;;16.90;66.40;;;;;;5015252;28;44117;-67
2021/12/06 10:14:49;;;;;;;3.77;3.47;;;16.90;66.50;;;;;;5031782;28;43432;-66
2021/12/06 10:17:18;;;;;;;3.70;3.50;;;16.80;66.50;;;;;;5031258;28;43966;-69
2021/12/06 10:19:46;;;;;;;3.33;3.23;;;16.80;66.60;;;;;;5028380;28;44106;-68
2021/12/06 10:22:15;;;;;;;4.70;3.90;;;16.80;66.70;;;;;;5035026;28;43988;-68
2021/12/06 10:24:52;;;;;;;9.10;3.20;;;16.80;66.80;;;;;;5033850;28;43563;-67
2021/12/06 10:27:20;;;;;;;3.30;3.20;;;16.70;66.70;;;;;;5026973;28;44074;-67
2021/12/06 10:29:49;;;;;;;3.50;3.33;;;16.70;66.80;;;;;;5041521;28;46107;-67
2021/12/06 10:32:17;;;;;;;3.10;3.00;;;16.70;66.80;;;;;;5027256;28;43469;-68
2021/12/06 10:34:48;;;;;;;3.60;3.40;;;16.80;66.90;;;;;;5035579;28;44061;-67
2021/12/06 10:37:33;;;;;;;3.40;3.30;;;16.80;66.70;;;;;;5031323;28;44148;-68
2021/12/06 10:40:05;;;;;;;3.43;3.33;;;16.90;66.40;;;;;;5029910;28;43981;-67
2021/12/06 10:42:34;;;;;;;3.00;2.90;;;17.00;66.00;;;;;;5032724;28;44007;-68
2021/12/06 10:45:05;;;;;;;3.30;3.10;;;17.10;65.60;;;;;;5014626;28;44086;-67
2021/12/06 10:47:33;;;;;;;3.40;3.23;;;17.10;65.50;;;;;;5032774;28;43910;-68
2021/12/06 10:50:11;;;;;;;3.33;3.13;;;17.10;65.70;;;;;;5024722;28;44297;-67
2021/12/06 10:52:51;;;;;;;3.20;3.10;;;17.00;65.80;;;;;;5028729;28;43875;-69
2021/12/06 10:55:21;;;;;;;3.13;2.93;;;17.00;66.10;;;;;;5016823;28;44572;-68
2021/12/06 10:57:50;;;;;;;3.03;2.93;;;16.90;66.20;;;;;;5025341;28;45118;-66
2021/12/06 11:00:40;;;;;;;2.90;2.80;;;16.90;66.30;;;;;;5024727;28;44039;-66
2021/12/06 11:03:19;;;;;;;3.00;2.90;;;16.90;66.40;;;;;;5027003;28;44408;-67
2021/12/06 11:05:49;;;;;;;3.00;2.90;;;16.80;66.50;;;;;;5024641;28;43546;-68
2021/12/06 11:08:18;;;;;;;3.00;2.90;;;16.80;66.60;;;;;;5028454;28;45813;-67
2021/12/06 11:10:49;;;;;;;2.90;2.80;;;16.80;66.70;;;;;;5040899;28;43468;-67
2021/12/06 11:13:23;;;;;;;3.10;3.00;;;16.80;66.80;;;;;;5025958;28;43943;-67
2021/12/06 11:16:07;;;;;;;3.20;3.10;;;16.80;66.70;;;;;;5013075;28;43932;-67
2021/12/06 11:18:40;;;;;;;2.80;2.70;;;16.90;66.60;;;;;;5036268;28;44090;-67
2021/12/06 11:21:21;;;;;;;3.00;2.90;;;17.00;66.10;;;;;;5035596;28;44260;-68
2021/12/06 11:24:16;;;;;;;3.00;2.87;;;17.10;65.90;;;;;;5034060;28;44015;-68
2021/12/06 11:26:51;;;;;;;3.17;2.97;;;17.00;65.80;;;;;;5035924;28;44014;-70
2021/12/06 11:29:21;;;;;;;3.40;3.30;;;17.00;66.50;;;;;;5030158;28;44085;-68
2021/12/06 11:31:53;;;;;;;3.10;3.00;;;17.00;69.00;;;;;;5034716;28;44138;-67
2021/12/06 11:34:21;;;;;;;2.97;2.87;;;16.90;66.90;;;;;;5024240;28;44013;-68
2021/12/06 11:36:52;;;;;;;3.03;2.93;;;16.90;66.60;;;;;;5024771;28;43983;-68
2021/12/06 11:39:20;;;;;;;3.20;3.07;;;16.90;66.60;;;;;;5027529;28;43990;-68
2021/12/06 11:41:52;;;;;;;2.63;2.53;;;16.80;66.60;;;;;;5028844;28;43450;-66
2021/12/06 11:44:23;;;;;;;3.20;3.10;;;16.80;66.60;;;;;;5035756;28;44037;-67
2021/12/06 11:47:03;;;;;;;2.67;2.57;;;16.80;66.70;;;;;;5026556;28;44317;-67
2021/12/06 11:49:33;;;;;;;3.00;2.90;;;16.80;66.80;;;;;;5027550;28;44187;-68
2021/12/06 11:52:01;;;;;;;2.70;2.60;;;16.70;66.70;;;;;;5028758;28;43938;-68
2021/12/06 11:54:36;;;;;;;2.63;2.53;;;16.70;66.80;;;;;;5031268;28;44013;-67
2021/12/06 11:57:12;;;;;;;2.77;2.67;;;16.80;66.70;;;;;;5024913;28;44230;-68
2021/12/06 11:59:48;;;;;;;2.83;2.73;;;16.90;66.40;;;;;;5022256;28;44797;-67
2021/12/06 12:02:16;;;;;;;2.60;2.50;;;16.90;66.30;;;;;;5034755;28;44068;-68
2021/12/06 12:04:44;;;;;;;2.63;2.53;;;16.90;66.40;;;;;;5029469;28;43994;-68
2021/12/06 12:07:12;;;;;;;2.63;2.50;;;16.90;66.40;;;;;;5032236;28;44338;-67
2021/12/06 12:09:40;;;;;;;2.80;2.70;;;16.80;66.50;;;;;;5026445;28;44085;-66
2021/12/06 12:12:09;;;;;;;2.30;2.30;;;16.80;66.60;;;;;;5030864;28;43991;-67
2021/12/06 12:14:41;;;;;;;2.20;2.20;;;16.80;66.70;;;;;;5031173;28;44125;-66
2021/12/06 12:17:11;;;;;;;2.50;2.40;;;16.80;66.80;;;;;;5026085;28;44044;-67
2021/12/06 12:19:40;;;;;;;2.60;2.50;;;16.70;66.70;;;;;;5028066;28;44100;-67
2021/12/06 12:22:08;;;;;;;2.53;2.43;;;16.70;66.80;;;;;;5030282;28;44023;-67
2021/12/06 12:24:38;;;;;;;2.43;2.33;;;16.70;66.90;;;;;;5026490;28;44095;-67
2021/12/06 12:27:18;;;;;;;2.70;2.60;;;16.70;67.00;;;;;;5031664;28;44124;-69
2021/12/06 12:29:48;;;;;;;2.40;2.40;;;16.70;67.00;;;;;;5024899;28;44093;-66
2021/12/06 12:32:16;;;;;;;2.33;2.23;;;16.70;67.00;;;;;;5007882;28;45207;-66
2021/12/06 12:34:45;;;;;;;1.90;1.90;;;16.70;67.00;;;;;;5012431;28;44138;-67
2021/12/06 12:37:14;;;;;;;2.40;2.30;;;16.80;66.90;;;;;;5028195;28;43994;-68
2021/12/06 12:39:42;;;;;;;2.40;2.20;;;16.90;66.60;;;;;;5027462;28;44236;-69
2021/12/06 12:42:10;;;;;;;2.30;2.30;;;17.00;66.10;;;;;;5021974;28;44167;-66
2021/12/06 12:44:42;;;;;;;2.77;2.23;;;17.10;65.80;;;;;;5031523;28;43533;-68
2021/12/06 12:47:16;;;;;;;2.80;2.60;;;17.10;65.30;;;;;;5022205;28;44441;-67
2021/12/06 12:49:45;;;;;;;2.50;2.30;;;17.00;65.40;;;;;;5025734;28;44328;-67
2021/12/06 12:52:13;;;;;;;2.50;2.40;;;17.00;65.50;;;;;;5024743;28;43791;-66
2021/12/06 12:54:43;;;;;;;2.93;2.47;;;16.90;65.60;;;;;;5030977;28;43517;-68
2021/12/06 12:57:14;;;;;;;2.00;2.00;;;16.90;65.90;;;;;;5026116;28;44089;-68
2021/12/06 12:59:47;;;;;;;2.33;2.27;;;16.80;66.00;;;;;;5028011;28;44180;-68
2021/12/06 13:02:35;;;;;;;2.40;2.20;;;16.80;66.20;;;;;;5026897;28;44084;-68
2021/12/06 13:05:20;;;;;;;2.60;2.20;;;16.70;66.30;;;;;;5022621;28;44002;-68
2021/12/06 13:08:03;;;;;;;2.10;2.10;;;16.70;66.50;;;;;;5028403;28;43538;-67
2021/12/06 13:10:39;;;;;;;2.50;2.40;;;16.70;66.60;;;;;;5036953;28;44263;-66
2021/12/06 13:13:11;;;;;;;2.63;1.97;;;16.70;66.80;;;;;;5025303;28;43983;-69